Time;durP1;ratioP1;P1;durP2;ratioP2;P2;SDS_P1;SDS_P2;PMS_P1;PMS_P2;Temp;Humidity;BMP_temperature;BMP_pressure;BME280_temperature;BME280_humidity;BME280_pressure;Samples;Min_cycle;Max_cycle;Signal;HPM_P1;HPM_P2
2021/08/27 00:00:50;;;;;;;9.73;2.65;;;13.00;99.90;;;;;;4213381;28;20047;-75
2021/08/27 00:02:50;;;;;;;5.75;2.75;;;13.00;99.90;;;;;;4209746;28;20035;-75
2021/08/27 00:04:51;;;;;;;10.93;3.00;;;13.10;99.90;;;;;;4194215;28;20043;-75
2021/08/27 00:06:52;;;;;;;8.55;2.42;;;13.10;99.90;;;;;;4211787;28;20371;-75
2021/08/27 00:08:52;;;;;;;11.10;2.47;;;13.20;99.90;;;;;;4207675;28;21236;-75
2021/08/27 00:10:54;;;;;;;8.07;2.47;;;;;;;;;;4211095;28;20395;-75
2021/08/27 00:12:57;;;;;;;6.57;2.40;;;13.30;99.90;;;;;;4208820;28;20128;-75
2021/08/27 00:14:57;;;;;;;7.25;2.53;;;13.30;99.90;;;;;;4211680;28;20127;-75
2021/08/27 00:16:58;;;;;;;6.88;2.92;;;13.30;99.90;;;;;;4211432;28;20036;-75
2021/08/27 00:18:59;;;;;;;8.43;2.50;;;;;;;;;;4194328;28;20112;-75
2021/08/27 00:21:00;;;;;;;7.57;2.42;;;13.00;99.90;;;;;;4210522;28;20059;-75
2021/08/27 00:23:01;;;;;;;7.47;2.30;;;13.00;99.90;;;;;;4211544;28;20032;-75
2021/08/27 00:25:02;;;;;;;8.15;2.55;;;12.90;99.90;;;;;;4211768;28;20036;-75
2021/08/27 00:27:03;;;;;;;9.82;2.90;;;12.80;99.90;;;;;;4211560;28;20032;-75
2021/08/27 00:29:05;;;;;;;13.13;3.05;;;12.70;99.90;;;;;;4195190;28;20058;-75
2021/08/27 00:31:05;;;;;;;10.93;3.95;;;12.60;99.90;;;;;;4193864;28;20031;-75
2021/08/27 00:33:09;;;;;;;9.95;3.30;;;12.60;99.90;;;;;;4211291;28;20419;-75
2021/08/27 00:35:10;;;;;;;6.63;2.75;;;12.50;99.90;;;;;;4211883;28;20066;-75
2021/08/27 00:37:10;;;;;;;11.00;3.17;;;12.40;99.90;;;;;;4193176;28;20032;-75
2021/08/27 00:39:11;;;;;;;6.45;3.08;;;12.40;99.90;;;;;;4208146;28;20036;-76
2021/08/27 00:41:12;;;;;;;9.30;3.03;;;12.50;99.90;;;;;;4191726;28;20045;-75
2021/08/27 00:43:13;;;;;;;10.75;2.92;;;12.50;99.90;;;;;;4211421;28;20082;-75
2021/08/27 00:45:14;;;;;;;4.97;2.35;;;;;;;;;;4190556;28;20029;-75
2021/08/27 00:47:15;;;;;;;9.93;3.47;;;12.40;99.90;;;;;;4205108;28;20791;-75
2021/08/27 00:49:16;;;;;;;9.85;3.35;;;12.40;99.90;;;;;;4210654;28;20040;-75
2021/08/27 00:51:17;;;;;;;5.85;2.30;;;12.40;99.90;;;;;;4210680;28;20036;-75
2021/08/27 00:53:17;;;;;;;5.65;3.22;;;12.40;99.90;;;;;;4189583;28;20035;-75
2021/08/27 00:55:18;;;;;;;8.25;2.70;;;12.30;99.90;;;;;;4208262;28;20106;-76
2021/08/27 00:57:23;;;;;;;14.75;3.13;;;12.40;99.90;;;;;;4210240;28;20532;-76
2021/08/27 00:59:24;;;;;;;7.75;2.80;;;12.40;99.90;;;;;;4208662;28;20506;-75
2021/08/27 01:01:25;;;;;;;8.05;2.72;;;12.40;99.90;;;;;;4208103;28;20036;-75
2021/08/27 01:03:25;;;;;;;13.10;3.55;;;12.30;99.90;;;;;;4199746;28;20044;-75
2021/08/27 01:05:32;;;;;;;8.32;2.47;;;12.10;99.90;;;;;;4208235;28;20038;-76
2021/08/27 01:07:43;;;;;;;11.38;2.80;;;12.20;99.90;;;;;;4192957;28;20037;-76
2021/08/27 01:10:03;;;;;;;9.13;2.75;;;12.20;99.90;;;;;;4211447;28;20373;-75
2021/08/27 01:12:29;;;;;;;7.13;2.90;;;12.20;99.90;;;;;;4192007;28;20040;-75
2021/08/27 01:14:40;;;;;;;6.63;3.22;;;12.20;99.90;;;;;;4152640;28;20037;-75
2021/08/27 01:17:00;;;;;;;13.57;2.92;;;12.20;99.90;;;;;;4192271;28;20040;-75
2021/08/27 01:19:00;;;;;;;11.45;2.72;;;12.20;99.90;;;;;;4189506;28;20028;-76
2021/08/27 01:21:19;;;;;;;5.90;3.08;;;12.30;99.90;;;;;;4208402;28;20487;-76
2021/08/27 01:23:28;;;;;;;19.58;3.90;;;12.30;99.90;;;;;;4207119;28;20115;-76
2021/08/27 01:25:30;;;;;;;15.73;3.38;;;12.30;99.90;;;;;;4202399;28;20033;-76
2021/08/27 01:27:34;;;;;;;7.45;2.63;;;12.30;99.90;;;;;;4209655;28;20032;-76
2021/08/27 01:29:43;;;;;;;;;;;12.30;99.90;;;;;;4188555;28;20028;-75
2021/08/27 01:32:01;;;;;;;7.00;2.60;;;12.30;99.90;;;;;;4192277;28;19919;-75
2021/08/27 01:34:14;;;;;;;10.50;2.88;;;12.30;99.90;;;;;;4187012;28;20160;-76
2021/08/27 01:36:15;;;;;;;11.02;3.08;;;12.30;99.90;;;;;;4192076;28;20877;-76
2021/08/27 01:38:24;;;;;;;10.63;3.10;;;12.10;99.90;;;;;;4205806;28;20093;-76
2021/08/27 01:40:27;;;;;;;7.43;2.95;;;12.20;99.90;;;;;;4192205;28;20028;-76
2021/08/27 01:42:33;;;;;;;11.50;3.13;;;;;;;;;;4206965;28;20428;-75
2021/08/27 01:44:34;;;;;;;12.00;3.60;;;12.10;99.90;;;;;;4211223;28;20054;-75
2021/08/27 01:46:37;;;;;;;14.48;2.83;;;12.20;99.90;;;;;;4208684;28;20047;-76
2021/08/27 01:48:39;;;;;;;11.38;2.97;;;12.10;99.90;;;;;;4209678;28;20424;-75
2021/08/27 01:50:41;;;;;;;15.18;3.08;;;12.20;99.90;;;;;;4209809;28;20735;-75
2021/08/27 01:52:43;;;;;;;10.50;3.30;;;12.20;99.90;;;;;;4210828;28;20021;-75
2021/08/27 01:54:46;;;;;;;8.13;3.00;;;12.20;99.90;;;;;;4209261;28;20490;-76
2021/08/27 01:56:48;;;;;;;9.82;2.42;;;12.20;99.90;;;;;;4192625;28;20842;-75
2021/08/27 01:58:49;;;;;;;9.98;3.47;;;12.20;99.90;;;;;;4208566;28;20488;-75
2021/08/27 02:00:50;;;;;;;14.60;3.58;;;12.20;99.90;;;;;;4208005;28;20124;-76
2021/08/27 02:02:52;;;;;;;9.93;2.58;;;12.20;99.90;;;;;;4207759;28;20057;-75
2021/08/27 02:04:57;;;;;;;9.48;2.72;;;12.30;99.90;;;;;;4212290;28;20032;-75
2021/08/27 02:06:58;;;;;;;10.18;3.03;;;12.40;99.90;;;;;;4209651;28;20344;-76
2021/08/27 02:09:00;;;;;;;8.10;2.83;;;12.40;99.90;;;;;;4210910;28;20035;-75
2021/08/27 02:11:01;;;;;;;10.32;2.88;;;12.50;99.90;;;;;;4213115;28;20025;-75
2021/08/27 02:13:02;;;;;;;8.93;3.53;;;12.60;99.90;;;;;;4207529;28;20036;-75
2021/08/27 02:15:03;;;;;;;9.88;2.75;;;12.70;99.90;;;;;;4212108;28;20104;-75
2021/08/27 02:17:06;;;;;;;9.90;2.88;;;12.80;99.90;;;;;;4210511;28;20123;-76
2021/08/27 02:19:07;;;;;;;8.75;3.03;;;12.90;99.90;;;;;;4212553;28;20055;-76
2021/08/27 02:21:11;;;;;;;6.72;2.83;;;13.10;99.90;;;;;;4196386;28;20032;-75
2021/08/27 02:23:13;;;;;;;7.60;2.40;;;13.10;99.90;;;;;;4212957;28;20027;-76
2021/08/27 02:25:15;;;;;;;12.27;3.42;;;13.20;99.90;;;;;;4213634;28;20059;-76
2021/08/27 02:27:16;;;;;;;7.40;2.60;;;13.40;99.90;;;;;;4197361;28;20029;-75
2021/08/27 02:29:19;;;;;;;8.00;3.30;;;13.50;99.90;;;;;;4213005;28;20042;-75
2021/08/27 02:31:21;;;;;;;11.43;2.92;;;13.50;99.90;;;;;;4205674;28;20111;-75
2021/08/27 02:33:25;;;;;;;9.80;2.55;;;13.50;99.90;;;;;;4188907;28;20048;-76
2021/08/27 02:35:27;;;;;;;10.38;3.50;;;13.50;99.90;;;;;;4214280;28;20036;-76
2021/08/27 02:37:31;;;;;;;10.80;3.95;;;13.60;99.90;;;;;;4206277;28;20047;-76
2021/08/27 02:39:32;;;;;;;8.05;3.00;;;13.60;99.90;;;;;;4214097;28;20059;-76
2021/08/27 02:41:32;;;;;;;6.82;2.67;;;13.60;99.90;;;;;;4212247;28;20391;-75
2021/08/27 02:43:33;;;;;;;5.90;3.20;;;13.60;99.90;;;;;;4214508;28;20423;-76
2021/08/27 02:45:34;;;;;;;9.23;3.35;;;13.70;99.90;;;;;;4211959;28;20496;-76
2021/08/27 02:47:34;;;;;;;11.38;3.13;;;13.70;99.90;;;;;;4205645;28;20044;-76
2021/08/27 02:49:36;;;;;;;6.97;2.50;;;13.70;99.90;;;;;;4208935;28;20448;-76
2021/08/27 02:51:45;;;;;;;4.70;2.55;;;13.70;99.90;;;;;;4210573;28;20461;-76
2021/08/27 02:53:49;;;;;;;9.60;3.00;;;13.70;99.90;;;;;;4194812;28;20037;-76
2021/08/27 02:55:57;;;;;;;5.82;2.88;;;13.80;99.90;;;;;;4195421;28;20064;-76
2021/08/27 02:58:02;;;;;;;9.40;2.65;;;13.90;99.90;;;;;;4211634;28;20032;-74
2021/08/27 03:00:04;;;;;;;8.00;2.60;;;13.90;99.90;;;;;;4210814;28;20040;-74
2021/08/27 03:02:07;;;;;;;8.90;2.77;;;14.00;99.90;;;;;;4209009;28;20492;-74
2021/08/27 03:04:17;;;;;;;5.18;2.28;;;14.00;99.90;;;;;;4209614;28;20115;-74
2021/08/27 03:06:27;;;;;;;7.95;2.50;;;14.00;99.90;;;;;;4213393;28;20432;-75
2021/08/27 03:08:29;;;;;;;7.32;3.72;;;14.00;99.90;;;;;;4205453;28;20044;-74
2021/08/27 03:10:37;;;;;;;8.20;2.55;;;14.10;99.90;;;;;;4195616;28;20063;-74
2021/08/27 03:13:16;;;;;;;5.65;2.50;;;14.10;99.90;;;;;;4206822;28;20097;-74
2021/08/27 03:15:35;;;;;;;7.60;2.70;;;14.10;99.90;;;;;;4125560;28;20066;-75
2021/08/27 03:17:41;;;;;;;11.73;2.10;;;14.10;99.90;;;;;;4191436;28;20105;-75
2021/08/27 03:19:49;;;;;;;11.02;3.40;;;14.10;99.90;;;;;;4210481;28;20036;-75
2021/08/27 03:22:08;;;;;;;7.72;2.90;;;14.10;99.90;;;;;;4193191;28;20039;-75
2021/08/27 03:25:00;;;;;;;6.30;2.83;;;14.10;99.90;;;;;;4206851;28;20039;-75
2021/08/27 03:27:09;;;;;;;5.90;2.25;;;14.10;99.90;;;;;;4134462;28;20086;-75
2021/08/27 03:29:15;;;;;;;7.13;2.70;;;14.10;99.90;;;;;;4208745;28;20036;-75
2021/08/27 03:31:15;;;;;;;12.00;3.40;;;14.20;99.90;;;;;;4208922;28;20777;-75
2021/08/27 03:33:17;;;;;;;7.50;2.35;;;14.10;99.90;;;;;;4212899;28;20024;-75
2021/08/27 03:35:20;;;;;;;8.25;2.58;;;14.20;99.90;;;;;;4205776;28;20067;-75
2021/08/27 03:37:21;;;;;;;14.60;3.03;;;14.20;99.90;;;;;;4208903;28;20495;-75
2021/08/27 03:39:22;;;;;;;6.28;2.60;;;14.20;99.90;;;;;;4207597;28;20115;-75
2021/08/27 03:41:27;;;;;;;5.72;2.60;;;14.20;99.90;;;;;;4192731;28;20033;-75
2021/08/27 03:43:27;;;;;;;6.68;3.15;;;14.20;99.90;;;;;;4210980;28;20055;-74
2021/08/27 03:45:30;;;;;;;7.78;2.78;;;14.20;99.90;;;;;;4194675;28;20032;-74
2021/08/27 03:47:31;;;;;;;8.17;2.93;;;14.30;99.90;;;;;;4193693;28;20029;-75
2021/08/27 03:49:33;;;;;;;8.48;3.28;;;14.20;99.90;;;;;;4210306;28;20282;-75
2021/08/27 03:51:34;;;;;;;4.57;2.80;;;14.20;99.90;;;;;;4194144;28;20484;-75
2021/08/27 03:53:37;;;;;;;7.35;2.70;;;14.20;99.90;;;;;;4187211;28;20445;-75
2021/08/27 03:55:38;;;;;;;5.78;2.33;;;14.40;99.90;;;;;;4192369;28;20044;-75
2021/08/27 03:57:42;;;;;;;6.07;2.40;;;14.10;99.90;;;;;;4206630;28;20618;-74
2021/08/27 03:59:44;;;;;;;3.90;2.58;;;14.00;99.90;;;;;;4193715;28;20033;-75
2021/08/27 04:01:45;;;;;;;11.98;4.35;;;14.20;99.90;;;;;;4190750;28;20444;-74
2021/08/27 04:03:46;;;;;;;10.20;2.60;;;14.10;99.90;;;;;;4192903;28;20054;-75
2021/08/27 04:06:07;;;;;;;9.15;3.90;;;14.10;99.90;;;;;;4195652;28;20047;-75
2021/08/27 04:08:07;;;;;;;4.57;3.17;;;14.10;99.90;;;;;;4194200;28;20037;-75
2021/08/27 04:10:10;;;;;;;7.65;2.58;;;14.10;99.90;;;;;;4195580;28;20140;-75
2021/08/27 04:12:10;;;;;;;7.67;3.03;;;14.00;99.90;;;;;;4188021;28;20606;-75
2021/08/27 04:14:11;;;;;;;8.35;2.95;;;14.00;99.90;;;;;;4193520;28;20112;-75
2021/08/27 04:16:11;;;;;;;11.82;3.05;;;14.00;99.90;;;;;;4191087;28;20021;-74
2021/08/27 04:18:12;;;;;;;7.80;2.63;;;13.90;99.90;;;;;;4195458;28;20025;-74
2021/08/27 04:20:14;;;;;;;7.97;3.38;;;13.90;99.90;;;;;;4195909;28;20036;-74
2021/08/27 04:22:14;;;;;;;14.10;2.83;;;13.80;99.90;;;;;;4193233;28;20049;-75
2021/08/27 04:24:15;;;;;;;9.75;2.92;;;13.70;99.90;;;;;;4194929;28;20029;-74
2021/08/27 04:26:17;;;;;;;9.40;3.65;;;13.60;99.90;;;;;;4189947;28;20032;-74
2021/08/27 04:28:18;;;;;;;11.10;3.10;;;13.50;99.90;;;;;;4194395;28;20025;-74
2021/08/27 04:30:19;;;;;;;8.63;2.63;;;13.50;99.90;;;;;;4191051;28;20550;-74
2021/08/27 04:32:20;;;;;;;7.57;3.60;;;13.60;99.90;;;;;;4195416;28;20098;-74
2021/08/27 04:34:20;;;;;;;12.15;3.70;;;13.70;99.90;;;;;;4193095;28;20043;-75
2021/08/27 04:36:22;;;;;;;9.75;2.50;;;13.80;99.90;;;;;;4195902;28;20032;-75
2021/08/27 04:38:22;;;;;;;11.25;3.17;;;13.80;99.90;;;;;;4194418;28;20028;-75
2021/08/27 04:40:23;;;;;;;9.18;2.90;;;13.80;99.90;;;;;;4190807;28;20108;-74
2021/08/27 04:42:24;;;;;;;9.07;2.95;;;13.80;99.90;;;;;;4193043;28;20158;-74
2021/08/27 04:44:25;;;;;;;10.07;2.60;;;13.80;99.90;;;;;;4206211;28;20064;-75
2021/08/27 04:46:26;;;;;;;10.60;2.88;;;13.80;99.90;;;;;;4209219;28;20085;-74
2021/08/27 04:48:26;;;;;;;5.93;2.80;;;13.80;99.90;;;;;;4209083;28;20434;-74
2021/08/27 04:50:27;;;;;;;6.65;2.90;;;13.80;99.90;;;;;;4208842;28;20028;-74
2021/08/27 04:52:28;;;;;;;8.57;3.60;;;13.80;99.90;;;;;;4189234;28;20040;-75
2021/08/27 04:54:29;;;;;;;6.45;2.97;;;13.90;99.90;;;;;;4193669;28;20392;-75
2021/08/27 04:56:29;;;;;;;6.50;2.55;;;13.90;99.90;;;;;;4193011;28;20035;-75
2021/08/27 04:58:30;;;;;;;10.50;2.40;;;14.00;99.90;;;;;;4206438;28;20033;-74
2021/08/27 05:00:30;;;;;;;9.43;4.22;;;14.00;99.90;;;;;;4183558;28;20092;-74
2021/08/27 05:02:31;;;;;;;6.70;3.00;;;14.10;99.90;;;;;;4207232;28;20123;-75
2021/08/27 05:04:32;;;;;;;4.15;2.88;;;14.20;99.90;;;;;;4202486;28;20032;-75
2021/08/27 05:06:32;;;;;;;7.43;2.88;;;14.20;99.90;;;;;;4211293;28;20476;-74
2021/08/27 05:08:33;;;;;;;6.88;2.67;;;14.20;99.90;;;;;;4193518;28;20484;-74
2021/08/27 05:10:33;;;;;;;10.63;3.70;;;14.20;99.90;;;;;;4209225;28;20039;-74
2021/08/27 05:12:35;;;;;;;10.68;2.35;;;14.20;99.90;;;;;;4192273;28;20123;-74
2021/08/27 05:14:36;;;;;;;10.77;3.03;;;14.10;99.90;;;;;;4210821;28;20040;-74
2021/08/27 05:16:36;;;;;;;7.45;2.70;;;14.10;99.90;;;;;;4210622;28;20028;-73
2021/08/27 05:18:37;;;;;;;6.22;2.47;;;14.10;99.90;;;;;;4208797;28;20526;-74
2021/08/27 05:20:38;;;;;;;9.27;2.90;;;14.20;99.90;;;;;;4193375;28;20131;-74
2021/08/27 05:22:39;;;;;;;5.40;2.63;;;;;;;;;;4209718;28;20492;-74
2021/08/27 05:24:39;;;;;;;6.72;2.28;;;14.20;99.90;;;;;;4205740;28;20105;-74
2021/08/27 05:26:40;;;;;;;7.22;2.70;;;14.30;99.90;;;;;;4206275;28;20024;-74
2021/08/27 05:28:42;;;;;;;6.05;2.50;;;14.40;99.90;;;;;;4188623;28;20432;-74
2021/08/27 05:30:42;;;;;;;5.50;2.42;;;14.40;99.90;;;;;;4208091;28;20043;-75
2021/08/27 05:32:43;;;;;;;3.30;2.25;;;14.40;99.90;;;;;;4208376;28;20032;-75
2021/08/27 05:34:45;;;;;;;5.75;2.88;;;14.60;99.90;;;;;;4192432;28;20040;-73
2021/08/27 05:36:46;;;;;;;4.47;2.88;;;14.70;99.90;;;;;;4191004;28;20452;-73
2021/08/27 05:38:47;;;;;;;8.40;2.42;;;14.70;99.90;;;;;;4201274;28;20028;-74
2021/08/27 05:40:48;;;;;;;5.90;3.38;;;14.90;99.90;;;;;;4194402;28;20115;-74
2021/08/27 05:42:49;;;;;;;9.93;3.28;;;14.90;99.90;;;;;;4193325;28;20471;-73
2021/08/27 05:44:50;;;;;;;9.27;2.60;;;14.90;99.90;;;;;;4208821;28;20052;-74
2021/08/27 05:46:51;;;;;;;5.70;2.58;;;15.00;99.90;;;;;;4187502;28;20032;-74
2021/08/27 05:48:52;;;;;;;6.57;4.03;;;14.90;99.90;;;;;;4195864;28;20412;-75
2021/08/27 05:50:53;;;;;;;3.58;2.10;;;14.80;99.90;;;;;;4196108;28;20032;-74
2021/08/27 05:52:53;;;;;;;6.03;3.20;;;14.70;99.90;;;;;;4196959;28;20102;-74
2021/08/27 05:54:54;;;;;;;4.32;2.50;;;14.60;99.90;;;;;;4213480;28;20056;-75
2021/08/27 05:56:56;;;;;;;6.80;2.83;;;14.50;99.90;;;;;;4214083;28;20036;-75
2021/08/27 05:58:56;;;;;;;7.43;2.58;;;14.40;99.90;;;;;;4211560;28;20510;-74
2021/08/27 06:00:57;;;;;;;7.85;2.30;;;14.30;99.90;;;;;;4195479;28;20049;-74
2021/08/27 06:02:57;;;;;;;5.82;2.80;;;14.30;99.90;;;;;;4208066;28;20499;-75
2021/08/27 06:05:00;;;;;;;6.00;2.60;;;;;;;;;;4206632;28;20028;-75
2021/08/27 06:07:00;;;;;;;7.80;2.35;;;14.00;99.90;;;;;;4213541;28;20032;-75
2021/08/27 06:09:02;;;;;;;9.85;2.65;;;14.20;99.90;;;;;;4195688;28;20024;-75
2021/08/27 06:11:03;;;;;;;7.65;2.75;;;14.20;99.90;;;;;;4213638;28;20037;-75
2021/08/27 06:13:03;;;;;;;7.05;3.78;;;14.30;99.90;;;;;;4212968;28;20051;-74
2021/08/27 06:15:06;;;;;;;6.78;2.50;;;;;;;;;;4209493;28;20499;-75
2021/08/27 06:17:08;;;;;;;6.13;2.35;;;;;;;;;;4204169;28;20123;-75
2021/08/27 06:19:09;;;;;;;8.60;2.67;;;14.30;99.90;;;;;;4209497;28;20043;-74
2021/08/27 06:21:09;;;;;;;8.88;2.95;;;14.40;99.90;;;;;;4208846;28;20482;-74
2021/08/27 06:23:10;;;;;;;8.02;3.05;;;14.40;99.90;;;;;;4194676;28;20063;-75
2021/08/27 06:25:11;;;;;;;7.18;2.72;;;14.30;99.90;;;;;;4212292;28;20032;-75
2021/08/27 06:27:11;;;;;;;7.35;3.00;;;14.40;99.90;;;;;;4194286;28;20049;-74
2021/08/27 06:29:12;;;;;;;5.40;2.80;;;14.50;99.90;;;;;;4194353;28;20099;-74
2021/08/27 06:31:15;;;;;;;7.82;2.55;;;;;;;;;;4212058;28;20138;-74
2021/08/27 06:33:15;;;;;;;7.75;3.67;;;14.70;99.90;;;;;;4213428;28;20041;-75
2021/08/27 06:35:16;;;;;;;8.75;5.07;;;14.80;99.90;;;;;;4208026;28;20033;-74
2021/08/27 06:37:18;;;;;;;7.05;3.15;;;;;;;;;;4214091;28;20035;-74
2021/08/27 06:39:19;;;;;;;7.50;3.72;;;15.10;99.90;;;;;;4210034;28;20487;-74
2021/08/27 06:41:20;;;;;;;12.05;4.18;;;15.30;99.90;;;;;;4186678;28;20120;-75
2021/08/27 06:43:25;;;;;;;5.13;3.15;;;15.40;99.90;;;;;;4190482;28;20041;-75
2021/08/27 06:45:26;;;;;;;8.55;3.45;;;15.50;99.90;;;;;;4182581;28;20079;-75
2021/08/27 06:47:27;;;;;;;7.35;3.45;;;15.60;99.90;;;;;;4180227;28;20091;-75
2021/08/27 06:49:27;;;;;;;8.27;2.97;;;15.70;99.90;;;;;;4183891;28;20048;-75
2021/08/27 06:51:28;;;;;;;9.48;3.75;;;15.80;99.90;;;;;;4180163;28;20492;-75
2021/08/27 06:53:29;;;;;;;8.38;2.70;;;16.00;99.90;;;;;;4181316;28;20033;-75
2021/08/27 06:55:30;;;;;;;6.45;2.70;;;16.10;99.90;;;;;;4190046;28;20044;-75
2021/08/27 06:57:30;;;;;;;12.95;3.08;;;16.20;99.90;;;;;;4181655;28;20033;-75
2021/08/27 06:59:31;;;;;;;7.43;3.28;;;16.30;99.90;;;;;;4181410;28;20040;-75
2021/08/27 07:01:32;;;;;;;6.20;3.38;;;16.40;99.90;;;;;;4181560;28;20448;-75
2021/08/27 07:03:33;;;;;;;5.63;2.67;;;16.50;99.90;;;;;;4183086;28;20387;-75
2021/08/27 07:05:34;;;;;;;5.00;2.40;;;16.50;99.90;;;;;;4180282;28;20417;-75
2021/08/27 07:07:34;;;;;;;7.55;2.25;;;16.60;99.90;;;;;;4195707;28;20541;-75
2021/08/27 07:09:35;;;;;;;6.45;2.92;;;16.70;99.90;;;;;;4180362;28;20032;-75
2021/08/27 07:11:36;;;;;;;6.10;2.25;;;;;;;;;;4184027;28;20423;-74
2021/08/27 07:13:39;;;;;;;4.53;2.05;;;;;;;;;;4183395;28;20119;-74
2021/08/27 07:15:41;;;;;;;12.32;3.15;;;17.00;99.90;;;;;;4181535;28;20041;-74
2021/08/27 07:17:42;;;;;;;4.30;2.47;;;17.10;99.90;;;;;;4180369;28;20067;-75
2021/08/27 07:19:42;;;;;;;8.57;2.58;;;17.00;99.90;;;;;;4181996;28;20037;-74
2021/08/27 07:21:43;;;;;;;8.30;2.10;;;17.00;99.90;;;;;;4180961;28;20474;-74
2021/08/27 07:23:43;;;;;;;7.80;2.30;;;17.00;99.90;;;;;;4181608;28;20338;-74
2021/08/27 07:25:44;;;;;;;18.27;11.40;;;16.90;99.90;;;;;;4180636;28;20085;-74
2021/08/27 07:27:45;;;;;;;17.63;9.57;;;16.80;99.90;;;;;;4180211;28;20388;-75
2021/08/27 07:29:45;;;;;;;10.93;5.45;;;16.60;99.90;;;;;;4181125;28;20032;-75
2021/08/27 07:31:46;;;;;;;3.70;2.80;;;16.60;99.90;;;;;;4182038;28;20037;-74
2021/08/27 07:33:49;;;;;;;9.35;3.95;;;16.40;99.90;;;;;;4179634;28;20033;-74
2021/08/27 07:35:50;;;;;;;3.95;2.20;;;16.50;99.90;;;;;;4182909;28;20029;-75
2021/08/27 07:37:51;;;;;;;6.80;3.65;;;16.60;99.90;;;;;;4181159;28;20094;-74
2021/08/27 07:39:51;;;;;;;11.55;5.85;;;16.80;99.90;;;;;;4181137;28;20033;-75
2021/08/27 07:41:52;;;;;;;17.00;5.32;;;16.90;99.90;;;;;;4181000;28;20037;-74
2021/08/27 07:43:53;;;;;;;18.10;8.20;;;17.10;99.90;;;;;;4201964;28;20040;-74
2021/08/27 07:45:57;;;;;;;13.65;7.90;;;17.20;99.90;;;;;;4194776;28;20115;-74
2021/08/27 07:47:57;;;;;;;13.77;6.35;;;17.30;99.90;;;;;;4187630;28;20025;-75
2021/08/27 07:49:58;;;;;;;13.40;8.23;;;17.40;99.90;;;;;;4212622;28;20058;-74
2021/08/27 07:51:59;;;;;;;10.18;4.47;;;17.40;99.90;;;;;;4193251;28;20487;-74
2021/08/27 07:53:59;;;;;;;6.20;3.08;;;17.50;99.90;;;;;;4195379;28;20464;-74
2021/08/27 07:56:00;;;;;;;6.00;2.40;;;17.50;99.90;;;;;;4207942;28;20086;-74
2021/08/27 07:58:00;;;;;;;6.03;2.65;;;17.60;99.90;;;;;;4209919;28;20122;-75
2021/08/27 08:00:01;;;;;;;7.88;3.00;;;17.70;99.90;;;;;;4207753;28;20081;-75
2021/08/27 08:02:02;;;;;;;5.60;2.40;;;17.90;99.90;;;;;;4194865;28;20045;-75
2021/08/27 08:04:03;;;;;;;4.70;2.70;;;18.30;99.90;;;;;;4210114;28;20120;-75
2021/08/27 08:06:03;;;;;;;8.43;2.50;;;18.30;99.90;;;;;;4212636;28;20111;-74
2021/08/27 08:08:04;;;;;;;8.77;4.05;;;18.40;99.90;;;;;;4194005;28;20020;-74
2021/08/27 08:10:05;;;;;;;6.43;2.63;;;18.20;99.90;;;;;;4212188;28;20028;-74
2021/08/27 08:12:06;;;;;;;10.15;3.42;;;17.80;99.90;;;;;;4193803;28;20044;-72
2021/08/27 08:14:07;;;;;;;9.98;3.20;;;17.20;99.90;;;;;;4186520;28;20079;-72
2021/08/27 08:16:09;;;;;;;8.45;3.15;;;16.70;99.90;;;;;;4209068;28;20487;-73
2021/08/27 08:18:09;;;;;;;8.43;3.10;;;16.30;99.90;;;;;;4186927;28;20044;-73
2021/08/27 08:20:10;;;;;;;13.45;3.47;;;16.00;99.90;;;;;;4193163;28;20032;-74
2021/08/27 08:22:11;;;;;;;6.53;2.95;;;15.90;99.90;;;;;;4191803;28;20112;-73
2021/08/27 08:24:12;;;;;;;6.03;3.08;;;16.00;99.90;;;;;;4211215;28;20365;-74
2021/08/27 08:26:12;;;;;;;7.00;2.88;;;16.10;99.90;;;;;;4211158;28;20040;-72
2021/08/27 08:28:13;;;;;;;10.55;5.78;;;16.40;99.90;;;;;;4210528;28;20141;-74
2021/08/27 08:30:14;;;;;;;6.53;2.95;;;16.80;99.90;;;;;;4211176;28;20052;-72
2021/08/27 08:32:15;;;;;;;8.20;3.70;;;17.10;99.90;;;;;;4190212;28;20110;-71
2021/08/27 08:34:15;;;;;;;7.65;3.60;;;17.50;99.90;;;;;;4205301;28;20455;-71
2021/08/27 08:36:16;;;;;;;6.70;2.78;;;17.70;99.90;;;;;;4193883;28;20032;-72
2021/08/27 08:38:22;;;;;;;7.07;3.40;;;17.80;99.90;;;;;;4205879;28;20574;-72
2021/08/27 08:40:23;;;;;;;7.25;3.47;;;17.80;99.90;;;;;;4190907;28;20107;-72
2021/08/27 08:42:24;;;;;;;8.07;3.13;;;17.60;99.90;;;;;;4210448;28;20066;-73
2021/08/27 08:44:25;;;;;;;13.13;3.40;;;17.40;99.90;;;;;;4211132;28;20036;-72
2021/08/27 08:46:27;;;;;;;10.30;6.38;;;17.30;99.90;;;;;;4209172;28;20208;-72
2021/08/27 08:48:29;;;;;;;10.50;4.97;;;17.20;99.90;;;;;;4192545;28;20044;-73
2021/08/27 08:50:31;;;;;;;5.45;3.13;;;17.30;99.90;;;;;;4210735;28;20445;-73
2021/08/27 08:52:35;;;;;;;8.23;3.05;;;17.30;99.90;;;;;;4204330;28;20147;-73
2021/08/27 08:54:36;;;;;;;8.23;3.88;;;17.30;99.90;;;;;;4207473;28;20567;-74
2021/08/27 08:56:37;;;;;;;7.57;3.58;;;17.40;99.90;;;;;;4191288;28;20066;-74
2021/08/27 08:58:37;;;;;;;7.30;3.17;;;17.60;99.90;;;;;;4208083;28;20367;-73
2021/08/27 09:00:38;;;;;;;7.25;3.17;;;17.80;99.90;;;;;;4188660;28;20041;-73
2021/08/27 09:02:39;;;;;;;5.38;3.75;;;18.00;99.90;;;;;;4208352;28;20051;-73
2021/08/27 09:04:39;;;;;;;7.28;3.08;;;18.00;99.90;;;;;;4191370;28;20067;-72
2021/08/27 09:06:40;;;;;;;8.35;3.25;;;18.10;99.90;;;;;;4193119;28;20044;-72
2021/08/27 09:08:46;;;;;;;5.60;3.05;;;18.20;99.90;;;;;;4193926;28;20388;-73
2021/08/27 09:10:46;;;;;;;6.60;2.83;;;18.40;99.90;;;;;;4209640;28;20379;-73
2021/08/27 09:12:49;;;;;;;7.88;3.42;;;18.50;99.90;;;;;;4204705;28;20040;-73
2021/08/27 09:15:20;;;;;;;8.65;2.88;;;18.80;99.90;;;;;;4208633;28;20055;-73
2021/08/27 09:17:32;;;;;;;4.47;2.08;;;19.00;99.90;;;;;;4207095;28;20032;-73
2021/08/27 09:19:50;;;;;;;16.88;2.53;;;19.20;99.90;;;;;;4211311;28;20545;-73
2021/08/27 09:21:51;;;;;;;7.25;3.22;;;19.20;99.90;;;;;;4210554;28;20043;-72
2021/08/27 09:24:11;;;;;;;5.25;2.58;;;19.20;99.90;;;;;;4211569;28;20036;-73
2021/08/27 09:26:32;;;;;;;8.95;3.00;;;19.10;99.90;;;;;;4209807;28;20113;-73
2021/08/27 09:28:38;;;;;;;5.90;2.78;;;19.20;99.90;;;;;;4205114;28;20063;-74
2021/08/27 09:30:50;;;;;;;5.88;2.85;;;19.20;99.90;;;;;;4206542;28;20040;-74
2021/08/27 09:32:52;;;;;;;25.65;19.90;;;19.20;99.90;;;;;;4211132;28;20028;-74
2021/08/27 09:35:09;;;;;;;9.65;3.40;;;19.30;99.90;;;;;;4211183;28;20104;-75
2021/08/27 09:37:10;;;;;;;3.60;2.45;;;19.40;99.90;;;;;;4187277;28;20471;-75
2021/08/27 09:39:11;;;;;;;5.63;3.05;;;;;;;;;;4192002;28;20028;-75
2021/08/27 09:41:19;;;;;;;7.60;2.83;;;20.00;99.90;;;;;;4206718;28;20115;-75
2021/08/27 09:43:24;;;;;;;6.88;3.00;;;20.60;99.90;;;;;;4191234;28;20049;-74
2021/08/27 09:45:41;;;;;;;5.75;2.70;;;21.00;99.90;;;;;;4179763;28;20063;-74
2021/08/27 09:48:05;;;;;;;5.82;2.65;;;21.30;99.90;;;;;;4185163;28;20044;-73
2021/08/27 09:50:25;;;;;;;10.25;3.90;;;21.60;99.90;;;;;;4177544;28;20037;-75
2021/08/27 09:52:26;;;;;;;7.20;3.20;;;21.60;99.90;;;;;;4179536;28;20025;-75
2021/08/27 09:54:29;;;;;;;10.65;3.65;;;21.20;99.90;;;;;;4177483;28;20036;-74
2021/08/27 09:56:46;;;;;;;10.18;3.70;;;20.90;99.90;;;;;;4183711;28;20107;-74
2021/08/27 09:58:53;;;;;;;6.45;3.25;;;20.40;99.90;;;;;;4177574;28;20036;-75
2021/08/27 10:01:02;;;;;;;6.38;2.58;;;20.10;99.90;;;;;;4177588;28;20511;-74
2021/08/27 10:03:25;;;;;;;11.52;3.85;;;20.20;99.90;;;;;;4180490;28;20025;-75
2021/08/27 10:05:38;;;;;;;7.05;3.00;;;20.40;99.90;;;;;;4178399;28;20029;-74
2021/08/27 10:07:42;;;;;;;12.75;4.10;;;20.80;99.90;;;;;;4192175;28;20041;-74
2021/08/27 10:09:46;;;;;;;8.65;3.15;;;20.60;99.90;;;;;;4177332;28;20461;-74
2021/08/27 10:11:49;;;;;;;10.43;3.50;;;20.40;99.90;;;;;;4178226;28;20056;-74
2021/08/27 10:13:52;;;;;;;10.43;4.13;;;20.10;99.90;;;;;;4197037;28;20693;-75
2021/08/27 10:15:53;;;;;;;8.50;3.58;;;19.70;99.90;;;;;;4179296;28;20029;-75
2021/08/27 10:17:53;;;;;;;8.52;3.20;;;19.60;99.90;;;;;;4187635;28;20036;-74
2021/08/27 10:19:55;;;;;;;10.45;3.78;;;19.60;99.90;;;;;;4179538;28;20091;-75
2021/08/27 10:21:55;;;;;;;16.30;4.45;;;19.80;99.90;;;;;;4181780;28;20483;-74
2021/08/27 10:23:56;;;;;;;12.85;4.35;;;19.70;99.90;;;;;;4179752;28;20029;-72
2021/08/27 10:26:09;;;;;;;12.52;5.05;;;19.30;99.90;;;;;;4179644;28;20037;-74
2021/08/27 10:28:10;;;;;;;13.50;4.65;;;17.10;99.90;;;;;;4178369;28;20070;-74
2021/08/27 10:30:11;;;;;;;16.10;3.85;;;17.00;99.90;;;;;;4178929;28;20027;-73
2021/08/27 10:32:11;;;;;;;10.25;3.67;;;16.50;99.90;;;;;;4179269;28;20029;-73
2021/08/27 10:34:15;;;;;;;5.72;3.33;;;16.20;99.90;;;;;;4185553;28;20028;-72
2021/08/27 10:36:21;;;;;;;6.63;4.25;;;16.00;99.90;;;;;;4180359;28;20051;-71
2021/08/27 10:38:58;;;;;;;5.97;3.40;;;16.10;99.90;;;;;;4196078;28;20396;-72
2021/08/27 10:41:10;;;;;;;9.20;3.58;;;16.50;99.90;;;;;;4130492;28;20030;-71
2021/08/27 10:43:11;;;;;;;9.13;3.00;;;17.20;99.90;;;;;;4168020;28;20031;-70